Time;durP1;ratioP1;P1;durP2;ratioP2;P2;SDS_P1;SDS_P2;PMS_P1;PMS_P2;Temp;Humidity;BMP_temperature;BMP_pressure;BME280_temperature;BME280_humidity;BME280_pressure;Samples;Min_cycle;Max_cycle;Signal;HPM_P1;HPM_P2
2022/08/04 00:01:20;;;;;;;4.38;1.95;;;25.00;66.50;;;;;;4510389;31;20158;-67
2022/08/04 00:04:04;;;;;;;4.07;1.85;;;25.00;66.40;;;;;;4510062;31;20109;-67
2022/08/04 00:06:44;;;;;;;3.15;1.67;;;25.00;66.40;;;;;;4510477;31;20083;-67
2022/08/04 00:09:20;;;;;;;6.05;1.77;;;25.00;66.50;;;;;;4510715;31;20061;-67
2022/08/04 00:11:50;;;;;;;6.47;1.83;;;25.00;66.50;;;;;;4510846;31;20068;-67
2022/08/04 00:14:18;;;;;;;4.45;1.80;;;24.90;66.50;;;;;;4510624;31;20341;-67
2022/08/04 00:16:48;;;;;;;4.78;2.22;;;24.90;66.60;;;;;;4510113;31;20064;-67
2022/08/04 00:19:22;;;;;;;3.22;1.55;;;25.00;66.60;;;;;;4510404;31;20095;-67
2022/08/04 00:21:54;;;;;;;3.38;1.98;;;24.90;66.50;;;;;;4510560;31;20440;-67
2022/08/04 00:24:21;;;;;;;2.43;1.40;;;25.00;66.60;;;;;;4510390;31;20072;-67
2022/08/04 00:26:47;;;;;;;5.30;1.83;;;24.90;66.40;;;;;;4509920;31;20405;-68
2022/08/04 00:29:14;;;;;;;3.47;1.65;;;24.90;66.50;;;;;;4510455;31;20240;-68
2022/08/04 00:31:42;;;;;;;4.13;1.55;;;25.00;66.60;;;;;;4510107;31;20162;-67
2022/08/04 00:34:12;;;;;;;6.45;1.63;;;24.90;66.50;;;;;;4509810;31;20518;-66
2022/08/04 00:36:40;;;;;;;4.03;1.67;;;24.90;66.50;;;;;;4509936;31;20514;-67
2022/08/04 00:39:10;;;;;;;3.78;1.65;;;24.90;66.50;;;;;;4509735;31;20123;-67
2022/08/04 00:41:49;;;;;;;3.03;1.65;;;24.90;66.50;;;;;;4509870;31;20109;-68
2022/08/04 00:44:40;;;;;;;3.45;1.70;;;24.90;66.50;;;;;;4510311;31;20494;-67
2022/08/04 00:47:27;;;;;;;3.63;1.70;;;24.90;66.50;;;;;;4510255;31;20201;-67
2022/08/04 00:50:09;;;;;;;3.13;1.67;;;24.90;66.60;;;;;;4510132;31;20080;-67
2022/08/04 00:53:01;;;;;;;5.10;1.50;;;25.00;66.60;;;;;;4509973;31;20547;-67
2022/08/04 00:55:33;;;;;;;2.92;1.60;;;24.90;66.40;;;;;;4509372;31;20077;-66
2022/08/04 00:58:17;;;;;;;4.07;1.60;;;24.90;66.50;;;;;;4509839;31;20634;-67
2022/08/04 01:00:48;;;;;;;2.33;1.33;;;24.90;66.40;;;;;;4509808;31;20073;-67
2022/08/04 01:03:41;;;;;;;2.42;1.45;;;24.90;66.50;;;;;;4509935;31;20081;-67
2022/08/04 01:06:34;;;;;;;2.85;1.30;;;24.90;66.40;;;;;;4509616;31;20095;-66
2022/08/04 01:09:18;;;;;;;4.20;1.60;;;24.90;66.40;;;;;;4509989;31;20088;-66
2022/08/04 01:12:10;;;;;;;5.47;1.73;;;24.90;66.40;;;;;;4509589;31;20398;-66
2022/08/04 01:15:09;;;;;;;3.97;1.40;;;24.90;66.50;;;;;;4490598;31;20112;-67
2022/08/04 01:17:35;;;;;;;2.88;1.65;;;24.90;66.40;;;;;;4509828;31;20080;-67
2022/08/04 01:20:06;;;;;;;3.63;1.50;;;24.80;66.30;;;;;;4509391;31;20547;-66
2022/08/04 01:22:32;;;;;;;3.80;1.70;;;24.90;66.40;;;;;;4509610;31;20284;-67
2022/08/04 01:25:43;;;;;;;3.53;1.50;;;24.80;66.30;;;;;;4509280;31;20085;-67
2022/08/04 01:28:09;;;;;;;3.92;1.55;;;24.80;66.20;;;;;;4490349;31;20092;-67
2022/08/04 01:30:38;;;;;;;4.75;1.67;;;24.90;66.40;;;;;;4509200;31;20068;-67
2022/08/04 01:33:10;;;;;;;4.30;1.90;;;24.80;66.30;;;;;;4509006;31;20081;-67
2022/08/04 01:36:00;;;;;;;4.75;1.38;;;24.80;66.20;;;;;;4495008;31;20159;-67
2022/08/04 01:38:38;;;;;;;4.75;1.42;;;24.80;66.20;;;;;;4509002;31;20124;-67
2022/08/04 01:41:12;;;;;;;3.90;1.50;;;24.80;66.20;;;;;;4509035;31;20109;-67
2022/08/04 01:43:43;;;;;;;2.38;1.60;;;24.80;66.20;;;;;;4509002;31;20073;-67
2022/08/04 01:46:14;;;;;;;3.97;1.40;;;24.80;66.20;;;;;;4508711;31;20575;-66
2022/08/04 01:48:45;;;;;;;2.90;1.60;;;24.80;66.20;;;;;;4508808;31;20092;-69
2022/08/04 01:51:11;;;;;;;4.35;1.65;;;24.80;66.20;;;;;;4508869;31;20116;-66
2022/08/04 01:53:42;;;;;;;4.70;1.90;;;24.80;66.20;;;;;;4508901;31;20084;-67
2022/08/04 01:56:10;;;;;;;4.43;1.70;;;24.80;66.20;;;;;;4508884;31;20056;-66
2022/08/04 01:58:38;;;;;;;2.03;1.40;;;24.80;66.20;;;;;;4508804;31;20572;-67
2022/08/04 02:01:13;;;;;;;3.60;1.85;;;24.80;66.10;;;;;;4508964;31;20386;-67
2022/08/04 02:03:42;;;;;;;6.55;1.92;;;24.80;66.20;;;;;;4509110;31;20480;-67
2022/08/04 02:06:45;;;;;;;3.58;1.58;;;24.80;66.10;;;;;;4508685;31;20069;-66
2022/08/04 02:09:23;;;;;;;3.80;1.40;;;24.80;66.10;;;;;;4508803;31;20158;-67
2022/08/04 02:12:27;;;;;;;3.30;1.30;;;24.80;66.20;;;;;;4508363;31;20625;-67
2022/08/04 02:15:08;;;;;;;;;;;24.70;66.40;;;;;;4493927;31;20080;-66
2022/08/04 02:18:01;;;;;;;3.35;1.40;;;24.70;66.10;;;;;;4508606;31;20071;-67
2022/08/04 02:20:42;;;;;;;2.83;1.58;;;24.70;66.10;;;;;;4508360;31;20216;-67
2022/08/04 02:23:13;;;;;;;3.15;1.20;;;24.70;66.10;;;;;;4508756;31;20393;-67
2022/08/04 02:25:46;;;;;;;2.47;1.45;;;24.70;66.10;;;;;;4508718;31;20076;-67
2022/08/04 02:28:24;;;;;;;2.70;1.40;;;24.70;66.10;;;;;;4508759;31;20398;-67
2022/08/04 02:31:08;;;;;;;2.92;1.52;;;24.70;66.10;;;;;;4508103;31;20089;-67
2022/08/04 02:33:36;;;;;;;4.60;1.60;;;24.70;66.10;;;;;;4508364;31;20084;-67
2022/08/04 02:36:04;;;;;;;3.17;1.52;;;24.70;66.10;;;;;;4508310;31;20092;-67
2022/08/04 02:38:48;;;;;;;2.17;1.45;;;24.70;66.10;;;;;;4508249;31;20092;-66
2022/08/04 02:41:19;;;;;;;3.13;1.50;;;24.70;66.00;;;;;;4508239;31;20087;-69
2022/08/04 02:43:47;;;;;;;2.25;1.42;;;24.70;66.10;;;;;;4507907;31;20065;-67
2022/08/04 02:46:16;;;;;;;3.88;1.63;;;24.70;66.10;;;;;;4508146;31;20073;-67
2022/08/04 02:48:44;;;;;;;3.03;1.73;;;24.70;66.10;;;;;;4508080;31;20415;-67
2022/08/04 02:51:13;;;;;;;3.95;1.50;;;24.70;66.10;;;;;;4507804;31;20076;-67
2022/08/04 02:53:42;;;;;;;2.17;1.48;;;24.70;66.10;;;;;;4493777;31;20082;-67
2022/08/04 02:56:10;;;;;;;2.70;1.45;;;24.70;66.00;;;;;;4507950;31;20502;-66
2022/08/04 02:58:37;;;;;;;3.58;1.50;;;24.70;66.00;;;;;;4508025;31;20123;-66
2022/08/04 03:01:03;;;;;;;2.92;1.75;;;24.70;66.00;;;;;;4507957;31;20160;-66
2022/08/04 03:03:52;;;;;;;2.47;1.20;;;24.70;66.00;;;;;;4507339;31;20061;-67
2022/08/04 03:06:36;;;;;;;3.60;1.65;;;24.70;66.00;;;;;;4507853;31;20611;-67
2022/08/04 03:09:36;;;;;;;2.63;1.33;;;24.70;65.90;;;;;;4507867;31;20094;-68
2022/08/04 03:12:23;;;;;;;4.43;1.95;;;24.70;65.90;;;;;;4507822;31;20094;-67
2022/08/04 03:15:15;;;;;;;3.17;1.48;;;24.70;66.00;;;;;;4507893;31;20161;-67
2022/08/04 03:17:55;;;;;;;1.83;1.30;;;24.70;65.90;;;;;;4507859;31;20072;-67
2022/08/04 03:20:42;;;;;;;3.17;1.70;;;24.60;65.80;;;;;;4507741;31;20143;-67
2022/08/04 03:23:15;;;;;;;2.85;1.80;;;24.70;66.00;;;;;;4507795;31;20484;-68
2022/08/04 03:26:00;;;;;;;4.00;1.70;;;24.70;66.00;;;;;;4507718;31;20120;-67
2022/08/04 03:29:05;;;;;;;3.45;1.48;;;24.60;65.90;;;;;;4507703;31;20206;-67
2022/08/04 03:32:04;;;;;;;4.30;1.85;;;24.60;65.80;;;;;;4507756;31;20073;-67
2022/08/04 03:35:05;;;;;;;4.57;1.60;;;24.60;65.90;;;;;;4507774;31;20080;-67
2022/08/04 03:37:33;;;;;;;2.30;1.35;;;24.60;65.80;;;;;;4498973;31;20069;-69
2022/08/04 03:40:36;;;;;;;2.95;1.25;;;24.60;65.90;;;;;;4507664;31;20391;-66
2022/08/04 03:43:18;;;;;;;2.22;1.60;;;24.60;65.80;;;;;;4507545;31;20077;-66
2022/08/04 03:46:12;;;;;;;2.25;1.30;;;24.60;65.90;;;;;;4508003;31;20065;-67
2022/08/04 03:49:08;;;;;;;2.83;1.27;;;24.60;65.80;;;;;;4507607;31;20095;-68
2022/08/04 03:55:08;;;;;;;4.25;1.70;;;24.60;65.80;;;;;;4507536;31;20625;-66
2022/08/04 03:58:11;;;;;;;2.47;1.92;;;24.60;65.80;;;;;;4507486;31;20508;-67
2022/08/04 04:00:52;;;;;;;3.28;1.60;;;24.60;65.80;;;;;;4507601;31;20108;-67
2022/08/04 04:03:25;;;;;;;2.10;1.33;;;24.60;65.80;;;;;;4507636;31;20083;-66
2022/08/04 04:05:58;;;;;;;2.95;1.30;;;24.60;65.80;;;;;;4507481;31;20392;-67
2022/08/04 04:08:44;;;;;;;3.60;1.30;;;24.60;65.80;;;;;;4507822;31;20163;-67
2022/08/04 04:11:19;;;;;;;2.47;1.30;;;24.60;65.80;;;;;;4507475;31;20506;-66
2022/08/04 04:14:07;;;;;;;2.30;1.33;;;24.60;65.80;;;;;;4508161;31;20124;-66
2022/08/04 04:17:18;;;;;;;2.88;1.50;;;24.60;65.80;;;;;;4510366;31;20129;-67
2022/08/04 04:19:53;;;;;;;3.17;1.60;;;24.60;65.80;;;;;;4491222;31;20099;-66
2022/08/04 04:22:33;;;;;;;2.70;1.50;;;24.50;65.80;;;;;;4510314;31;20072;-66
2022/08/04 04:25:18;;;;;;;3.75;1.63;;;24.60;65.80;;;;;;4510583;31;20077;-66
2022/08/04 04:28:10;;;;;;;2.42;1.50;;;24.50;65.80;;;;;;4510625;31;20075;-67
2022/08/04 04:31:03;;;;;;;2.92;1.70;;;24.50;65.70;;;;;;4510255;31;20069;-66
2022/08/04 04:33:52;;;;;;;3.30;1.52;;;24.50;65.80;;;;;;4509853;31;20517;-66
2022/08/04 04:36:28;;;;;;;3.25;1.70;;;24.50;65.80;;;;;;4485054;31;20123;-67
2022/08/04 04:39:12;;;;;;;2.50;1.48;;;24.50;65.80;;;;;;4510099;31;20158;-67
2022/08/04 04:41:52;;;;;;;2.40;1.33;;;24.60;65.80;;;;;;4495746;31;20085;-66
2022/08/04 04:44:38;;;;;;;3.05;1.42;;;24.50;65.70;;;;;;4510056;31;20068;-67
2022/08/04 04:47:31;;;;;;;3.17;1.73;;;24.50;65.80;;;;;;4510367;31;20123;-66
2022/08/04 04:50:37;;;;;;;3.05;1.45;;;24.50;65.80;;;;;;4509731;31;20108;-66
2022/08/04 04:53:08;;;;;;;2.97;1.40;;;24.50;65.80;;;;;;4503529;31;20095;-66
2022/08/04 04:55:42;;;;;;;3.03;1.58;;;24.50;65.80;;;;;;4495501;31;20153;-66
2022/08/04 04:58:13;;;;;;;2.10;1.35;;;24.50;65.70;;;;;;4509633;31;20230;-66
2022/08/04 05:01:14;;;;;;;2.72;1.60;;;24.50;65.80;;;;;;4510005;31;20091;-67
2022/08/04 05:03:52;;;;;;;2.35;1.25;;;24.50;65.70;;;;;;4509500;31;20169;-66
2022/08/04 05:06:27;;;;;;;2.85;1.60;;;24.50;65.80;;;;;;4509758;31;20085;-66
2022/08/04 05:09:02;;;;;;;3.00;1.50;;;24.50;65.80;;;;;;4509589;31;20073;-66
2022/08/04 05:11:59;;;;;;;3.28;1.48;;;24.50;65.70;;;;;;4495122;31;20563;-66
2022/08/04 05:14:39;;;;;;;3.72;1.70;;;24.50;65.70;;;;;;4509511;31;20516;-66
2022/08/04 05:17:23;;;;;;;2.17;1.30;;;24.50;65.70;;;;;;4509287;31;20083;-66
2022/08/04 05:20:11;;;;;;;2.10;1.40;;;24.50;65.70;;;;;;4509498;31;20065;-66
2022/08/04 05:22:56;;;;;;;2.40;1.58;;;24.50;65.70;;;;;;4509037;31;20166;-67
2022/08/04 05:25:34;;;;;;;3.67;1.50;;;24.50;65.70;;;;;;4508782;31;20116;-66
2022/08/04 05:28:07;;;;;;;2.75;1.48;;;24.50;65.80;;;;;;4509186;31;20083;-66
2022/08/04 05:30:37;;;;;;;2.15;1.33;;;24.50;65.80;;;;;;4509349;31;20142;-67
2022/08/04 05:33:08;;;;;;;2.75;1.25;;;24.50;65.80;;;;;;4509203;31;20262;-66
2022/08/04 05:35:39;;;;;;;2.25;1.10;;;24.50;65.80;;;;;;4509315;31;20103;-66
2022/08/04 05:38:07;;;;;;;2.15;1.40;;;24.50;65.80;;;;;;4509305;31;20092;-66
2022/08/04 05:40:33;;;;;;;3.80;1.52;;;24.50;65.80;;;;;;4508880;31;20418;-66
2022/08/04 05:43:00;;;;;;;1.95;1.27;;;24.50;65.70;;;;;;4509026;31;20181;-66
2022/08/04 05:45:26;;;;;;;3.53;1.40;;;24.50;65.80;;;;;;4509062;31;20088;-66
2022/08/04 05:47:54;;;;;;;1.98;1.42;;;24.50;65.80;;;;;;4494810;31;20516;-67
2022/08/04 05:50:20;;;;;;;2.78;1.25;;;24.50;65.80;;;;;;4508984;31;20092;-66
2022/08/04 05:52:48;;;;;;;2.30;1.30;;;24.50;65.80;;;;;;4509181;31;20166;-66
2022/08/04 05:55:15;;;;;;;2.80;1.40;;;24.50;65.70;;;;;;4508683;31;20080;-66
2022/08/04 05:57:42;;;;;;;3.63;1.50;;;24.50;65.80;;;;;;4508808;31;20072;-66
2022/08/04 06:00:09;;;;;;;2.30;1.55;;;24.50;65.80;;;;;;4508814;31;20528;-66
2022/08/04 06:02:37;;;;;;;2.95;1.52;;;24.50;65.80;;;;;;4494592;31;20493;-66
2022/08/04 06:05:06;;;;;;;3.20;1.60;;;24.50;65.80;;;;;;4509033;31;20138;-66
2022/08/04 06:07:33;;;;;;;1.45;1.00;;;24.50;65.70;;;;;;4508532;31;20065;-67
2022/08/04 06:09:59;;;;;;;2.17;1.48;;;24.50;65.70;;;;;;4508703;31;20500;-66
2022/08/04 06:12:51;;;;;;;2.90;1.58;;;24.50;65.70;;;;;;4508610;31;20526;-66
2022/08/04 06:15:20;;;;;;;2.70;1.60;;;24.50;65.60;;;;;;4508574;31;20312;-66
2022/08/04 06:17:49;;;;;;;2.50;1.60;;;24.50;65.70;;;;;;4508616;31;20068;-66
2022/08/04 06:20:17;;;;;;;2.53;1.35;;;24.50;65.70;;;;;;4508535;31;20518;-67
2022/08/04 06:22:46;;;;;;;2.65;1.45;;;24.50;65.70;;;;;;4508362;31;20092;-66
2022/08/04 06:25:16;;;;;;;2.63;1.25;;;24.50;65.60;;;;;;4508458;31;20229;-67
2022/08/04 06:27:43;;;;;;;4.68;1.98;;;24.50;65.60;;;;;;4508721;31;20498;-68
2022/08/04 06:30:13;;;;;;;5.18;2.40;;;24.50;65.80;;;;;;4508335;31;20088;-68
2022/08/04 06:32:48;;;;;;;9.55;3.92;;;24.50;66.20;;;;;;4508519;31;20077;-68
2022/08/04 06:35:18;;;;;;;11.98;3.90;;;24.50;66.70;;;;;;4508094;31;20150;-68
2022/08/04 06:37:46;;;;;;;8.40;3.33;;;24.50;67.00;;;;;;4508085;31;20084;-68
2022/08/04 06:40:15;;;;;;;10.98;3.90;;;24.50;67.10;;;;;;4507911;31;20626;-67
2022/08/04 06:42:42;;;;;;;11.18;4.15;;;24.50;67.30;;;;;;4507797;31;20204;-68
2022/08/04 06:45:10;;;;;;;8.70;3.58;;;24.50;67.60;;;;;;4508090;31;20088;-68
2022/08/04 06:47:38;;;;;;;8.13;3.55;;;24.50;67.80;;;;;;4507810;31;20088;-68
2022/08/04 06:50:05;;;;;;;11.25;4.03;;;24.50;67.90;;;;;;4507776;31;20506;-68
2022/08/04 06:52:31;;;;;;;11.45;4.20;;;24.50;67.90;;;;;;4507738;31;20088;-70
2022/08/04 06:54:57;;;;;;;9.75;4.10;;;24.60;68.30;;;;;;4508258;31;20122;-68
2022/08/04 06:57:26;;;;;;;12.30;4.28;;;24.60;68.50;;;;;;4507967;31;20092;-68
2022/08/04 07:00:04;;;;;;;7.53;3.15;;;24.60;68.50;;;;;;4508181;31;20073;-68
2022/08/04 07:02:37;;;;;;;10.15;3.67;;;24.60;68.30;;;;;;4508214;31;20084;-69
2022/08/04 07:05:06;;;;;;;7.57;3.28;;;24.70;68.30;;;;;;4508266;31;20087;-67
2022/08/04 07:07:33;;;;;;;14.15;3.67;;;24.70;68.40;;;;;;4507673;31;20083;-68
2022/08/04 07:10:01;;;;;;;8.15;3.58;;;24.70;68.60;;;;;;4507519;31;20153;-68
2022/08/04 07:12:27;;;;;;;7.85;3.10;;;24.70;68.60;;;;;;4507807;31;20230;-68
2022/08/04 07:14:53;;;;;;;8.52;3.53;;;24.70;68.30;;;;;;4507805;31;20216;-67
2022/08/04 07:17:20;;;;;;;10.63;3.17;;;24.70;68.20;;;;;;4508047;31;20075;-68
2022/08/04 07:19:46;;;;;;;10.77;3.42;;;24.70;68.20;;;;;;4507720;31;20084;-67
2022/08/04 07:22:12;;;;;;;6.38;3.35;;;24.70;68.10;;;;;;4507918;31;20080;-68
2022/08/04 07:24:41;;;;;;;8.50;3.30;;;24.70;68.20;;;;;;4507447;31;20077;-68
2022/08/04 07:27:07;;;;;;;5.82;3.47;;;24.70;68.30;;;;;;4507649;31;20123;-68
2022/08/04 07:29:35;;;;;;;11.93;4.00;;;24.70;69.20;;;;;;4507645;31;20099;-68
2022/08/04 07:32:02;;;;;;;9.75;2.88;;;24.70;68.30;;;;;;4493801;31;20180;-68
2022/08/04 07:34:29;;;;;;;8.70;2.90;;;24.70;68.20;;;;;;4507615;31;20088;-68
2022/08/04 07:36:58;;;;;;;8.35;3.20;;;24.70;68.20;;;;;;4507620;31;20089;-68
2022/08/04 07:39:27;;;;;;;6.75;3.20;;;24.70;68.30;;;;;;4507600;31;20072;-68
2022/08/04 07:41:54;;;;;;;7.45;2.95;;;24.70;68.30;;;;;;4507511;31;20158;-68
2022/08/04 07:44:20;;;;;;;7.20;2.97;;;24.70;68.20;;;;;;4507113;31;20085;-68
2022/08/04 07:46:46;;;;;;;11.27;3.17;;;24.70;68.20;;;;;;4507264;31;20231;-70
2022/08/04 07:49:14;;;;;;;8.20;3.13;;;24.70;68.50;;;;;;4509103;31;20405;-68
2022/08/04 07:51:40;;;;;;;7.30;3.30;;;24.70;68.20;;;;;;4510958;31;20292;-68
2022/08/04 07:54:09;;;;;;;7.45;2.75;;;24.70;68.20;;;;;;4496069;31;20131;-68
2022/08/04 07:56:37;;;;;;;11.02;3.58;;;24.80;68.40;;;;;;4510554;31;20089;-68
2022/08/04 07:59:03;;;;;;;7.35;3.22;;;24.80;68.60;;;;;;4510398;31;20069;-68
2022/08/04 08:01:29;;;;;;;6.68;3.05;;;24.80;68.70;;;;;;4510520;31;20087;-68
2022/08/04 08:03:57;;;;;;;9.13;3.15;;;24.80;68.50;;;;;;4510464;31;20083;-68
2022/08/04 08:06:24;;;;;;;10.57;3.55;;;24.80;68.50;;;;;;4510646;31;20498;-67
2022/08/04 08:08:50;;;;;;;8.00;3.63;;;24.90;68.60;;;;;;4510155;31;20069;-68
2022/08/04 08:11:17;;;;;;;8.25;3.28;;;24.90;68.70;;;;;;4510307;31;20073;-68
2022/08/04 08:13:44;;;;;;;6.50;2.85;;;24.90;68.70;;;;;;4510409;31;20069;-68
2022/08/04 08:16:10;;;;;;;8.05;3.13;;;24.90;68.60;;;;;;4510575;31;20484;-68
2022/08/04 08:18:36;;;;;;;9.65;2.92;;;24.90;68.60;;;;;;4510605;31;20521;-68
2022/08/04 08:21:03;;;;;;;8.57;3.40;;;24.90;68.70;;;;;;4510289;31;20127;-68
2022/08/04 08:23:30;;;;;;;9.98;3.80;;;24.90;68.80;;;;;;4510357;31;20088;-68
2022/08/04 08:25:57;;;;;;;6.32;3.13;;;25.00;68.90;;;;;;4510383;31;20502;-67
2022/08/04 08:28:24;;;;;;;8.45;3.30;;;24.90;68.80;;;;;;4509895;31;20077;-67
2022/08/04 08:30:50;;;;;;;9.73;3.20;;;25.00;68.80;;;;;;4495974;31;20100;-71
2022/08/04 08:33:17;;;;;;;6.97;3.22;;;25.00;68.80;;;;;;4509827;31;20099;-69
2022/08/04 08:35:55;;;;;;;9.20;3.78;;;25.00;68.70;;;;;;4510074;31;20592;-69
2022/08/04 08:38:46;;;;;;;5.72;3.00;;;25.00;68.60;;;;;;4509873;31;20107;-69
2022/08/04 08:41:15;;;;;;;6.13;2.60;;;25.00;68.50;;;;;;4509724;31;20057;-69
2022/08/04 08:44:05;;;;;;;10.35;3.40;;;25.00;68.50;;;;;;4509407;31;20088;-69
2022/08/04 08:46:46;;;;;;;11.15;3.70;;;25.00;68.40;;;;;;4509912;31;20091;-69
2022/08/04 08:49:54;;;;;;;6.88;3.15;;;25.00;68.40;;;;;;4510275;31;20073;-69
2022/08/04 08:52:42;;;;;;;6.95;2.80;;;25.00;68.20;;;;;;4509569;31;20093;-69
2022/08/04 08:55:35;;;;;;;7.18;3.08;;;25.10;68.30;;;;;;4509833;31;20580;-70
2022/08/04 08:58:07;;;;;;;5.90;2.97;;;25.10;68.10;;;;;;4509946;31;20072;-69
2022/08/04 09:01:04;;;;;;;5.43;2.70;;;25.10;68.00;;;;;;4508883;31;20595;-70
2022/08/04 09:03:58;;;;;;;6.03;2.63;;;25.10;67.90;;;;;;4509343;31;20081;-69
2022/08/04 09:06:49;;;;;;;6.97;2.65;;;25.10;67.80;;;;;;4509650;31;20492;-69
2022/08/04 09:09:34;;;;;;;7.05;3.03;;;25.10;67.70;;;;;;4509667;31;20074;-69
2022/08/04 09:12:12;;;;;;;8.90;2.95;;;25.10;67.80;;;;;;4509508;31;20069;-69
2022/08/04 09:14:46;;;;;;;3.95;2.38;;;25.10;67.70;;;;;;4509811;31;20612;-69
2022/08/04 09:17:36;;;;;;;6.65;2.72;;;25.10;67.60;;;;;;4509556;31;20091;-69
2022/08/04 09:20:23;;;;;;;6.07;2.67;;;25.10;67.50;;;;;;4509475;31;20502;-69
2022/08/04 09:23:13;;;;;;;10.00;2.55;;;25.10;67.50;;;;;;4509194;31;20069;-70
2022/08/04 09:26:07;;;;;;;5.90;2.22;;;25.10;67.50;;;;;;4509349;31;20131;-70
2022/08/04 09:29:03;;;;;;;5.82;2.60;;;25.10;67.40;;;;;;4509704;31;20087;-69
2022/08/04 09:31:34;;;;;;;10.73;2.45;;;25.10;67.40;;;;;;4509286;31;20069;-69
2022/08/04 09:34:12;;;;;;;4.80;2.47;;;25.10;67.40;;;;;;4494736;31;20157;-69
2022/08/04 09:36:50;;;;;;;4.82;2.50;;;25.10;67.40;;;;;;4508846;31;20140;-66
2022/08/04 09:39:24;;;;;;;5.57;2.55;;;25.10;67.40;;;;;;4509311;31;20161;-66
2022/08/04 09:41:59;;;;;;;4.95;2.00;;;25.10;67.50;;;;;;4509130;31;20065;-66
2022/08/04 09:44:54;;;;;;;8.73;2.75;;;25.10;67.40;;;;;;4508963;31;20647;-66
2022/08/04 09:47:37;;;;;;;6.97;2.20;;;25.20;67.50;;;;;;4509342;31;20513;-66
2022/08/04 09:50:29;;;;;;;3.85;1.92;;;25.20;67.50;;;;;;4509131;31;20506;-67
2022/08/04 09:53:12;;;;;;;5.93;2.15;;;25.20;67.40;;;;;;4508948;31;20502;-66
2022/08/04 09:55:42;;;;;;;3.08;2.03;;;25.10;67.40;;;;;;4509279;31;20189;-66
2022/08/04 09:58:23;;;;;;;3.38;1.80;;;25.20;67.40;;;;;;4508603;31;20131;-66
2022/08/04 10:00:54;;;;;;;7.97;2.33;;;25.20;67.40;;;;;;4509043;31;20165;-66
2022/08/04 10:03:24;;;;;;;4.68;2.17;;;25.20;67.40;;;;;;4508743;31;20072;-66
2022/08/04 10:06:17;;;;;;;3.95;2.40;;;25.20;67.40;;;;;;4509038;31;20072;-66
2022/08/04 10:09:10;;;;;;;5.28;2.25;;;25.20;67.40;;;;;;4508738;31;20169;-66
2022/08/04 10:11:54;;;;;;;4.55;2.17;;;25.20;67.40;;;;;;4493814;31;20072;-66
2022/08/04 10:14:23;;;;;;;4.97;2.25;;;25.20;67.40;;;;;;4508965;31;20465;-66
2022/08/04 10:16:57;;;;;;;6.55;1.92;;;25.20;67.40;;;;;;4508879;31;20084;-66
2022/08/04 10:19:30;;;;;;;5.28;1.98;;;25.20;67.40;;;;;;4508654;31;20202;-66
2022/08/04 10:22:32;;;;;;;5.05;2.03;;;25.30;67.50;;;;;;4508491;31;20089;-66
2022/08/04 10:25:09;;;;;;;6.00;1.88;;;25.20;67.50;;;;;;4508658;31;20104;-66
2022/08/04 10:27:56;;;;;;;3.75;2.00;;;25.20;67.50;;;;;;4508143;31;20077;-66
2022/08/04 10:30:23;;;;;;;5.32;1.95;;;25.30;67.60;;;;;;4508689;31;20088;-66
2022/08/04 10:33:28;;;;;;;4.30;1.65;;;25.30;67.60;;;;;;4508056;31;20110;-66
2022/08/04 10:36:01;;;;;;;7.00;2.10;;;25.30;67.60;;;;;;4508413;31;20162;-66
2022/08/04 10:38:50;;;;;;;;;;;25.20;67.60;;;;;;4508729;31;20169;-67
2022/08/04 10:41:26;;;;;;;4.60;1.80;;;25.30;67.60;;;;;;4499409;31;19969;-66
2022/08/04 10:44:24;;;;;;;4.57;1.70;;;25.30;67.70;;;;;;4507956;31;20092;-66
2022/08/04 10:47:00;;;;;;;5.07;1.60;;;25.30;67.70;;;;;;4508364;31;20410;-66
2022/08/04 10:49:36;;;;;;;6.68;1.50;;;25.30;67.60;;;;;;4508223;31;20123;-67
2022/08/04 10:52:12;;;;;;;3.92;1.42;;;25.20;67.50;;;;;;4493877;31;20088;-67
2022/08/04 10:54:48;;;;;;;2.90;1.50;;;25.30;67.60;;;;;;4508157;31;20112;-67
2022/08/04 10:57:28;;;;;;;4.80;1.50;;;25.30;67.50;;;;;;4508523;31;20165;-67
2022/08/04 11:00:02;;;;;;;2.85;1.30;;;25.30;67.40;;;;;;4508415;31;20078;-67
2022/08/04 11:02:52;;;;;;;3.60;1.45;;;25.30;67.40;;;;;;4493710;31;20494;-67
2022/08/04 11:05:38;;;;;;;5.20;1.40;;;25.30;67.30;;;;;;4508480;31;20240;-68
2022/08/04 11:08:10;;;;;;;4.00;1.42;;;25.30;67.20;;;;;;4508256;31;20086;-67
2022/08/04 11:10:49;;;;;;;2.05;1.27;;;25.30;67.20;;;;;;4508011;31;20073;-67
2022/08/04 11:13:16;;;;;;;4.78;1.10;;;25.30;67.10;;;;;;4507916;31;20085;-67
2022/08/04 11:15:54;;;;;;;3.13;1.40;;;25.30;67.10;;;;;;4507941;31;20088;-67
2022/08/04 11:18:46;;;;;;;3.55;1.10;;;25.30;67.00;;;;;;4507514;31;20087;-67
2022/08/04 11:21:20;;;;;;;3.20;1.50;;;25.30;67.00;;;;;;4507484;31;20072;-67
2022/08/04 11:24:13;;;;;;;2.90;1.30;;;25.30;67.00;;;;;;4507082;31;20208;-67
2022/08/04 11:26:59;;;;;;;3.97;1.15;;;25.30;66.90;;;;;;4507548;31;20081;-67
2022/08/04 11:29:46;;;;;;;3.08;1.10;;;25.30;66.80;;;;;;4507399;31;20094;-67
2022/08/04 11:32:44;;;;;;;3.08;0.95;;;25.30;66.80;;;;;;4507807;31;20083;-67
2022/08/04 11:35:29;;;;;;;3.10;1.20;;;25.30;66.70;;;;;;4506911;31;20502;-67
2022/08/04 11:38:10;;;;;;;3.65;1.17;;;25.30;66.60;;;;;;4507827;31;20502;-67
2022/08/04 11:40:42;;;;;;;1.83;1.00;;;25.30;66.50;;;;;;4507760;31;20088;-67
2022/08/04 11:43:18;;;;;;;2.22;1.00;;;25.30;66.50;;;;;;4507586;31;20136;-67
2022/08/04 11:45:55;;;;;;;4.30;1.13;;;25.30;66.40;;;;;;4507677;31;20505;-67
2022/08/04 11:48:31;;;;;;;2.60;1.13;;;25.30;66.40;;;;;;4507993;31;20073;-67
2022/08/04 11:51:01;;;;;;;3.25;1.30;;;25.30;66.30;;;;;;4507788;31;20514;-67
2022/08/04 11:53:28;;;;;;;2.40;1.00;;;25.30;66.30;;;;;;4507358;31;20073;-67
2022/08/04 11:56:03;;;;;;;4.40;1.35;;;25.30;66.30;;;;;;4507621;31;20073;-68
2022/08/04 11:58:29;;;;;;;1.90;1.10;;;25.30;66.30;;;;;;4507482;31;20076;-67
2022/08/04 12:01:10;;;;;;;2.03;1.20;;;25.30;66.30;;;;;;4507572;31;20075;-67
2022/08/04 12:03:54;;;;;;;3.13;1.13;;;25.30;66.30;;;;;;4507813;31;20513;-67
2022/08/04 12:06:41;;;;;;;6.15;1.48;;;25.30;66.30;;;;;;4507187;31;20076;-67
2022/08/04 12:09:17;;;;;;;2.03;1.13;;;25.30;66.30;;;;;;4493278;31;20270;-67
2022/08/04 12:11:46;;;;;;;2.88;1.05;;;25.30;66.30;;;;;;4507737;31;20116;-73
2022/08/04 12:14:14;;;;;;;4.22;1.33;;;25.30;66.30;;;;;;4506907;31;20069;-67
2022/08/04 12:17:02;;;;;;;3.05;1.38;;;25.30;66.40;;;;;;4507230;31;20076;-67
2022/08/04 12:19:53;;;;;;;2.70;1.35;;;25.30;66.30;;;;;;4507403;31;20134;-67
2022/08/04 12:22:24;;;;;;;2.40;1.10;;;25.30;66.30;;;;;;4506810;31;20138;-68
2022/08/04 12:24:59;;;;;;;4.85;1.08;;;25.30;66.40;;;;;;4507273;31;20178;-67
2022/08/04 12:27:32;;;;;;;2.53;1.00;;;25.30;66.40;;;;;;4507159;31;20127;-68
2022/08/04 12:29:58;;;;;;;7.15;1.38;;;25.30;66.40;;;;;;4507085;31;20466;-68
2022/08/04 12:32:40;;;;;;;2.47;1.00;;;25.30;66.40;;;;;;4507189;31;20530;-67
2022/08/04 12:35:22;;;;;;;1.95;1.10;;;25.30;66.40;;;;;;4508827;31;20069;-66
2022/08/04 12:38:02;;;;;;;4.10;1.10;;;25.40;66.50;;;;;;4510206;31;20096;-67
2022/08/04 12:40:43;;;;;;;4.15;1.10;;;25.40;66.40;;;;;;4510329;31;20116;-67
2022/08/04 12:43:18;;;;;;;3.22;1.17;;;25.30;66.40;;;;;;4509732;31;20226;-67
2022/08/04 12:45:55;;;;;;;2.50;1.10;;;25.40;66.40;;;;;;4496016;31;20069;-67
2022/08/04 12:48:24;;;;;;;3.53;1.15;;;25.30;66.40;;;;;;4496002;31;20083;-67
2022/08/04 12:50:53;;;;;;;3.17;1.20;;;25.30;66.30;;;;;;4509833;31;20092;-67
2022/08/04 12:53:24;;;;;;;1.85;1.00;;;25.30;66.40;;;;;;4509792;31;20524;-67
2022/08/04 12:55:52;;;;;;;2.55;1.35;;;25.40;66.40;;;;;;4510200;31;20095;-67
2022/08/04 12:58:23;;;;;;;3.03;1.10;;;25.30;66.40;;;;;;4509910;31;20198;-67
2022/08/04 13:01:03;;;;;;;3.00;1.27;;;25.40;66.50;;;;;;4510041;31;20101;-66
2022/08/04 13:04:02;;;;;;;4.10;1.20;;;25.40;66.50;;;;;;4510010;31;20084;-66
2022/08/04 13:06:34;;;;;;;4.07;1.40;;;25.40;66.40;;;;;;4509644;31;20489;-66
2022/08/04 13:09:25;;;;;;;3.22;1.20;;;25.40;66.50;;;;;;4509903;31;20083;-66
2022/08/04 13:11:58;;;;;;;4.15;1.15;;;25.40;66.60;;;;;;4509406;31;20072;-65
2022/08/04 13:14:30;;;;;;;4.80;1.47;;;25.40;66.50;;;;;;4509821;31;20162;-66
2022/08/04 13:16:58;;;;;;;5.13;1.40;;;25.40;66.60;;;;;;4509628;31;20080;-66
2022/08/04 13:19:25;;;;;;;5.63;1.63;;;25.40;66.60;;;;;;4509271;31;20079;-66
2022/08/04 13:21:53;;;;;;;4.45;1.52;;;25.40;66.50;;;;;;4509531;31;20077;-66
2022/08/04 13:24:21;;;;;;;4.82;1.20;;;25.50;66.60;;;;;;4509304;31;20083;-66
2022/08/04 13:27:12;;;;;;;5.15;1.45;;;25.50;66.60;;;;;;4509006;31;20172;-66
2022/08/04 13:29:42;;;;;;;4.85;1.80;;;25.50;66.60;;;;;;4509086;31;20095;-66
2022/08/04 13:32:09;;;;;;;3.90;1.33;;;25.50;66.50;;;;;;4509382;31;20121;-66
2022/08/04 13:34:39;;;;;;;4.35;1.55;;;25.50;66.50;;;;;;4509230;31;20405;-66
2022/08/04 13:37:06;;;;;;;4.28;1.15;;;25.50;66.50;;;;;;4508816;31;20095;-67
2022/08/04 13:39:34;;;;;;;4.07;1.17;;;25.50;67.30;;;;;;4509154;31;20077;-66
2022/08/04 13:42:07;;;;;;;4.53;1.60;;;25.60;66.60;;;;;;4508807;31;20088;-66